Time;durP1;ratioP1;P1;durP2;ratioP2;P2;SDS_P1;SDS_P2;PMS_P1;PMS_P2;Temp;Humidity;BMP_temperature;BMP_pressure;BME280_temperature;BME280_humidity;BME280_pressure;Samples;Min_cycle;Max_cycle;Signal;HPM_P1;HPM_P2
2022/08/27 00:00:36;;;;;;;13.05;6.70;;;11.60;99.90;;;;;;5033594;28;20089;-28
2022/08/27 00:03:01;;;;;;;10.13;6.80;;;11.50;99.90;;;;;;5033590;28;20110;-28
2022/08/27 00:05:27;;;;;;;12.18;6.90;;;11.40;99.90;;;;;;5033263;28;20570;-28
2022/08/27 00:07:53;;;;;;;13.75;6.93;;;11.30;99.90;;;;;;5031519;28;20049;-27
2022/08/27 00:10:23;;;;;;;12.10;7.72;;;11.20;99.90;;;;;;5033470;28;20068;-28
2022/08/27 00:12:49;;;;;;;13.25;7.15;;;11.20;99.90;;;;;;5034314;28;20069;-28
2022/08/27 00:15:16;;;;;;;13.30;7.60;;;11.20;99.90;;;;;;5033988;28;20049;-27
2022/08/27 00:17:44;;;;;;;17.55;7.55;;;11.10;99.90;;;;;;5031284;28;20392;-27
2022/08/27 00:20:11;;;;;;;15.40;7.60;;;11.20;99.90;;;;;;5032214;28;20100;-28
2022/08/27 00:22:37;;;;;;;13.05;8.23;;;11.00;99.90;;;;;;5032948;28;20399;-27
2022/08/27 00:25:03;;;;;;;14.48;8.07;;;10.90;99.90;;;;;;5033377;28;20062;-28
2022/08/27 00:27:29;;;;;;;13.98;7.70;;;10.90;99.90;;;;;;5032333;28;20046;-27
2022/08/27 00:29:55;;;;;;;13.95;9.18;;;11.20;99.90;;;;;;5033873;28;20534;-27
2022/08/27 00:32:21;;;;;;;15.13;9.48;;;11.20;99.90;;;;;;5032791;28;20140;-27
2022/08/27 00:34:46;;;;;;;13.85;9.27;;;11.00;99.90;;;;;;5033304;28;20049;-28
2022/08/27 00:37:12;;;;;;;20.50;8.77;;;11.30;1.00;;;;;;5033296;28;20053;-28
2022/08/27 00:39:38;;;;;;;15.00;9.20;;;11.30;1.00;;;;;;5032055;28;20042;-28
2022/08/27 00:42:05;;;;;;;15.70;10.75;;;11.10;1.00;;;;;;5033004;28;20457;-27
2022/08/27 00:44:31;;;;;;;13.43;9.48;;;11.30;1.00;;;;;;5033201;28;20046;-27
2022/08/27 00:47:04;;;;;;;12.57;9.43;;;11.20;1.00;;;;;;5033481;28;20056;-28
2022/08/27 00:49:50;;;;;;;13.23;9.40;;;11.40;1.00;;;;;;5030884;28;20144;-27
2022/08/27 00:52:24;;;;;;;14.82;9.80;;;11.30;1.00;;;;;;5033925;28;20057;-28
2022/08/27 00:54:53;;;;;;;14.68;9.73;;;11.30;1.00;;;;;;5033960;28;20049;-29
2022/08/27 00:57:19;;;;;;;13.40;9.52;;;11.00;1.00;;;;;;5033341;28;20067;-27
2022/08/27 00:59:45;;;;;;;12.18;8.88;;;11.00;1.00;;;;;;5031067;28;20103;-28
2022/08/27 01:02:17;;;;;;;12.25;9.23;;;11.10;1.00;;;;;;5033011;28;20041;-28
2022/08/27 01:04:56;;;;;;;13.95;9.35;;;11.00;1.00;;;;;;5033103;28;20050;-28
2022/08/27 01:07:24;;;;;;;14.98;8.55;;;11.10;15.70;;;;;;5032465;28;20054;-27
2022/08/27 01:09:52;;;;;;;15.60;10.45;;;11.00;1.60;;;;;;5035249;28;20037;-27
2022/08/27 01:12:18;;;;;;;16.58;9.48;;;11.10;1.00;;;;;;5034962;28;20431;-27
2022/08/27 01:14:45;;;;;;;16.83;10.80;;;10.80;1.00;;;;;;5036995;28;20144;-27
2022/08/27 01:17:13;;;;;;;15.88;9.95;;;11.00;28.90;;;;;;5035188;28;20042;-27
2022/08/27 01:19:55;;;;;;;16.30;11.15;;;10.70;18.00;;;;;;5035664;28;20042;-27
2022/08/27 01:22:34;;;;;;;14.77;8.90;;;11.00;40.30;;;;;;5035832;28;20107;-27
2022/08/27 01:25:09;;;;;;;15.13;10.65;;;10.70;30.90;;;;;;5036332;28;20526;-28
2022/08/27 01:27:35;;;;;;;14.48;10.45;;;11.00;65.80;;;;;;5036178;28;20052;-28
2022/08/27 01:30:02;;;;;;;15.57;10.18;;;10.80;90.80;;;;;;5035031;28;20368;-28
2022/08/27 01:32:33;;;;;;;14.55;10.63;;;10.70;99.90;;;;;;5034761;28;20407;-28
2022/08/27 01:35:00;;;;;;;13.38;9.75;;;10.70;99.90;;;;;;5036928;28;20048;-27
2022/08/27 01:37:27;;;;;;;15.23;10.73;;;10.80;99.90;;;;;;5036031;28;20099;-27
2022/08/27 01:39:55;;;;;;;16.15;10.43;;;11.10;99.90;;;;;;5035936;28;20049;-27
2022/08/27 01:42:27;;;;;;;14.68;11.18;;;10.80;99.90;;;;;;5035189;28;20100;-27
2022/08/27 01:44:56;;;;;;;13.27;10.45;;;11.10;99.90;;;;;;5035844;28;20049;-27
2022/08/27 01:47:24;;;;;;;16.38;10.05;;;10.90;99.90;;;;;;5035845;28;20057;-27
2022/08/27 01:49:50;;;;;;;12.80;9.80;;;10.80;99.90;;;;;;5036092;28;20489;-27
2022/08/27 01:52:19;;;;;;;15.20;11.15;;;10.70;99.90;;;;;;5034676;28;20120;-28
2022/08/27 01:54:46;;;;;;;21.42;11.55;;;10.80;99.90;;;;;;5032990;28;20045;-28
2022/08/27 01:57:13;;;;;;;18.15;10.98;;;10.70;99.90;;;;;;5035655;28;20049;-27
2022/08/27 01:59:40;;;;;;;17.88;10.82;;;11.10;99.90;;;;;;5035367;28;20507;-28
2022/08/27 02:02:09;;;;;;;15.82;10.75;;;10.80;99.90;;;;;;5033637;28;20126;-28
2022/08/27 02:04:35;;;;;;;13.90;10.25;;;10.70;99.90;;;;;;5034537;28;20496;-27
2022/08/27 02:07:01;;;;;;;13.45;11.00;;;11.10;99.90;;;;;;5035478;28;20049;-28
2022/08/27 02:09:26;;;;;;;16.92;11.90;;;10.80;99.90;;;;;;5034247;28;20470;-28
2022/08/27 02:11:52;;;;;;;15.10;10.95;;;10.90;99.90;;;;;;5017956;28;20119;-28
2022/08/27 02:14:19;;;;;;;12.32;10.95;;;11.00;99.90;;;;;;5032907;28;20077;-28
2022/08/27 02:16:45;;;;;;;15.32;10.73;;;11.30;99.90;;;;;;5035342;28;20049;-28
2022/08/27 02:19:10;;;;;;;17.45;10.80;;;11.50;99.90;;;;;;5034857;28;20506;-28
2022/08/27 02:21:36;;;;;;;16.85;10.10;;;11.50;99.90;;;;;;5035731;28;20514;-27
2022/08/27 02:24:02;;;;;;;13.30;9.98;;;11.30;99.90;;;;;;5034073;28;20033;-28
2022/08/27 02:26:28;;;;;;;16.27;9.40;;;11.30;99.90;;;;;;5035098;28;20116;-28
2022/08/27 02:28:54;;;;;;;11.30;9.82;;;11.20;99.90;;;;;;5034719;28;20041;-27
2022/08/27 02:31:20;;;;;;;13.32;9.65;;;11.60;99.90;;;;;;5035230;28;20089;-28
2022/08/27 02:33:47;;;;;;;14.90;9.02;;;11.20;99.90;;;;;;5032551;28;20407;-28
2022/08/27 02:36:13;;;;;;;14.63;9.88;;;11.20;99.90;;;;;;5034245;28;20103;-27
2022/08/27 02:38:40;;;;;;;13.98;8.88;;;11.50;99.90;;;;;;5034782;28;20041;-28
2022/08/27 02:41:06;;;;;;;13.38;8.93;;;11.10;99.90;;;;;;5034817;28;20041;-28
2022/08/27 02:43:32;;;;;;;16.20;9.23;;;11.40;99.90;;;;;;5033684;28;20052;-27
2022/08/27 02:45:57;;;;;;;11.18;9.27;;;11.00;99.90;;;;;;5032775;28;20038;-27
2022/08/27 02:48:24;;;;;;;15.55;9.90;;;11.10;99.90;;;;;;5033738;28;20050;-27
2022/08/27 02:50:50;;;;;;;15.68;9.63;;;11.00;99.90;;;;;;5034666;28;20053;-27
2022/08/27 02:53:17;;;;;;;15.25;9.18;;;11.30;99.90;;;;;;5034824;28;20064;-27
2022/08/27 02:55:44;;;;;;;17.42;10.20;;;10.90;99.90;;;;;;5033422;28;20045;-28
2022/08/27 02:58:11;;;;;;;14.38;10.48;;;10.90;99.90;;;;;;5033242;28;20060;-27
2022/08/27 03:00:37;;;;;;;15.50;9.90;;;11.10;99.90;;;;;;5034743;28;20053;-27
2022/08/27 03:03:03;;;;;;;18.23;10.65;;;11.30;99.90;;;;;;5017425;28;20391;-28
2022/08/27 03:05:29;;;;;;;14.48;9.40;;;10.90;99.90;;;;;;5033948;28;20519;-27
2022/08/27 03:07:54;;;;;;;15.75;10.10;;;11.20;99.90;;;;;;5033159;28;20045;-27
2022/08/27 03:10:21;;;;;;;10.70;9.48;;;11.10;99.90;;;;;;5034298;28;20133;-27
2022/08/27 03:12:47;;;;;;;14.35;9.50;;;11.00;99.90;;;;;;5034740;28;20143;-27
2022/08/27 03:15:15;;;;;;;14.07;9.15;;;11.00;99.90;;;;;;5034276;28;20045;-28
2022/08/27 03:20:26;;;;;;;14.68;11.10;;;10.70;99.90;;;;;;5034487;28;20053;-27
2022/08/27 03:22:52;;;;;;;21.85;11.68;;;10.90;99.90;;;;;;5034089;28;20573;-27
2022/08/27 03:25:19;;;;;;;12.52;9.50;;;10.50;99.90;;;;;;5034042;28;20085;-27
2022/08/27 03:27:44;;;;;;;12.63;9.90;;;10.60;99.90;;;;;;5031988;28;20387;-27
2022/08/27 03:30:14;;;;;;;17.27;11.23;;;10.90;99.90;;;;;;5032981;28;20045;-27
2022/08/27 03:32:41;;;;;;;16.23;10.15;;;10.50;99.90;;;;;;5034044;28;20057;-27
2022/08/27 03:35:08;;;;;;;16.08;11.55;;;10.80;99.90;;;;;;5033923;28;20053;-27
2022/08/27 03:37:36;;;;;;;16.92;9.77;;;10.60;99.90;;;;;;5032792;28;20073;-27
2022/08/27 03:40:04;;;;;;;14.95;10.63;;;10.60;99.90;;;;;;5032025;28;20132;-27
2022/08/27 03:42:29;;;;;;;18.33;11.73;;;10.70;99.90;;;;;;5032659;28;20045;-27
2022/08/27 03:44:55;;;;;;;16.80;11.38;;;10.60;99.90;;;;;;5033773;28;20057;-27
2022/08/27 03:47:22;;;;;;;15.13;10.32;;;10.50;95.20;;;;;;5032360;28;20510;-27
2022/08/27 03:49:48;;;;;;;17.88;10.68;;;10.20;98.80;;;;;;5032694;28;20057;-27
2022/08/27 03:52:15;;;;;;;16.17;11.25;;;10.20;75.10;;;;;;5032726;28;20049;-27
2022/08/27 03:54:40;;;;;;;16.70;11.32;;;10.60;67.30;;;;;;5016184;28;20099;-28
2022/08/27 03:57:09;;;;;;;15.98;11.43;;;10.20;57.00;;;;;;5033636;28;20045;-27
2022/08/27 03:59:35;;;;;;;20.27;12.60;;;10.60;85.10;;;;;;5031194;28;20393;-27
2022/08/27 04:02:01;;;;;;;19.88;13.60;;;10.50;46.90;;;;;;5033586;28;20048;-27
2022/08/27 04:04:27;;;;;;;21.17;11.57;;;10.10;95.50;;;;;;5033556;28;20052;-27
2022/08/27 04:06:54;;;;;;;13.63;10.95;;;10.60;99.90;;;;;;5033525;28;20038;-27
2022/08/27 04:09:19;;;;;;;15.10;10.55;;;10.50;99.90;;;;;;5031238;28;20125;-27
2022/08/27 04:11:45;;;;;;;16.38;10.80;;;10.50;99.90;;;;;;5032648;28;20083;-27
2022/08/27 04:14:11;;;;;;;17.50;14.00;;;10.30;88.60;;;;;;5015885;28;20045;-27
2022/08/27 04:16:40;;;;;;;17.77;13.35;;;10.60;99.90;;;;;;5033474;28;20061;-27
2022/08/27 04:19:06;;;;;;;22.67;13.77;;;10.30;99.90;;;;;;5032664;28;20104;-27
2022/08/27 04:21:34;;;;;;;19.98;12.38;;;10.60;99.90;;;;;;5029389;28;20116;-27
2022/08/27 04:24:00;;;;;;;18.55;12.55;;;10.30;99.90;;;;;;5032469;28;20058;-27
2022/08/27 04:26:27;;;;;;;24.73;14.82;;;10.30;99.90;;;;;;5033382;28;20056;-28
2022/08/27 04:28:54;;;;;;;26.23;14.10;;;10.30;99.90;;;;;;5033332;28;20046;-27
2022/08/27 04:31:20;;;;;;;21.35;14.43;;;10.40;99.90;;;;;;5031615;28;20053;-27
2022/08/27 04:33:47;;;;;;;21.98;13.75;;;11.00;99.90;;;;;;5032792;28;20530;-27
2022/08/27 04:36:13;;;;;;;17.20;12.50;;;11.00;99.90;;;;;;5032960;28;20513;-27
2022/08/27 04:38:39;;;;;;;18.02;12.00;;;10.80;99.90;;;;;;5033198;28;20072;-27
2022/08/27 04:41:20;;;;;;;20.05;11.77;;;10.70;99.90;;;;;;5032156;28;20049;-27
2022/08/27 04:43:57;;;;;;;15.98;9.88;;;11.20;99.90;;;;;;5036875;28;20042;-27
2022/08/27 04:46:25;;;;;;;13.40;9.80;;;11.30;99.90;;;;;;5037069;28;20048;-27
2022/08/27 04:48:52;;;;;;;14.10;10.45;;;11.30;99.90;;;;;;5036942;28;20099;-27
2022/08/27 04:51:19;;;;;;;15.68;9.57;;;11.00;99.90;;;;;;5035061;28;20368;-28
2022/08/27 04:53:45;;;;;;;15.07;10.20;;;11.50;99.90;;;;;;5036162;28;20045;-27
2022/08/27 04:56:18;;;;;;;17.77;9.65;;;11.20;99.90;;;;;;5036833;28;20053;-28
2022/08/27 04:58:44;;;;;;;15.25;7.88;;;11.80;99.90;;;;;;5035293;28;20462;-27
2022/08/27 05:01:16;;;;;;;15.35;8.00;;;11.90;99.90;;;;;;5034624;28;20092;-29
2022/08/27 05:03:41;;;;;;;13.45;7.97;;;11.70;99.90;;;;;;5036597;28;20100;-27
2022/08/27 05:06:07;;;;;;;20.70;9.20;;;11.60;99.90;;;;;;5036628;28;20053;-28
2022/08/27 05:08:33;;;;;;;11.38;6.90;;;11.60;99.90;;;;;;5035954;28;20111;-27
2022/08/27 05:11:00;;;;;;;13.52;7.07;;;11.70;99.90;;;;;;5035652;28;20048;-28
2022/08/27 05:13:27;;;;;;;11.93;7.22;;;11.80;99.90;;;;;;5035353;28;20045;-27
2022/08/27 05:16:02;;;;;;;7.60;6.57;;;12.00;99.90;;;;;;5036470;28;20049;-28
2022/08/27 05:18:28;;;;;;;9.40;6.20;;;12.20;99.90;;;;;;5037023;28;20124;-28
2022/08/27 05:20:56;;;;;;;11.50;6.00;;;12.30;99.90;;;;;;5035408;28;20190;-27
2022/08/27 05:23:26;;;;;;;12.50;6.55;;;12.40;99.90;;;;;;5034673;28;20053;-28
2022/08/27 05:25:53;;;;;;;8.73;6.10;;;12.70;99.90;;;;;;5019836;28;20061;-28
2022/08/27 05:28:20;;;;;;;11.73;5.88;;;12.70;99.90;;;;;;5036513;28;20049;-27
2022/08/27 05:30:51;;;;;;;11.48;5.93;;;12.90;99.90;;;;;;5034807;28;20049;-29
2022/08/27 05:33:24;;;;;;;7.72;4.80;;;12.90;99.90;;;;;;5035728;28;20156;-28
2022/08/27 05:35:52;;;;;;;14.27;5.63;;;12.90;99.90;;;;;;5034438;28;20051;-27
2022/08/27 05:38:18;;;;;;;13.35;5.93;;;12.60;99.90;;;;;;5035922;28;20460;-27
2022/08/27 05:40:46;;;;;;;10.10;6.40;;;13.10;99.90;;;;;;5036559;28;20132;-27
2022/08/27 05:43:14;;;;;;;10.13;5.00;;;12.60;99.90;;;;;;5035629;28;20049;-27
2022/08/27 05:45:48;;;;;;;11.70;5.85;;;13.10;99.90;;;;;;5033936;28;20037;-27
2022/08/27 05:48:15;;;;;;;11.63;5.50;;;13.00;99.90;;;;;;5036473;28;20092;-28
2022/08/27 05:50:42;;;;;;;9.05;6.05;;;12.80;99.90;;;;;;5035860;28;20045;-28
2022/08/27 05:53:09;;;;;;;12.30;5.57;;;13.00;99.90;;;;;;5035242;28;20486;-28
2022/08/27 05:55:42;;;;;;;10.95;5.85;;;12.90;99.90;;;;;;5032911;28;20500;-27
2022/08/27 06:01:03;;;;;;;10.27;7.45;;;12.80;99.90;;;;;;5034706;28;20080;-27
2022/08/27 06:01:03;;;;;;;10.85;6.65;;;13.30;99.90;;;;;;5033865;28;20480;-28
2022/08/27 06:03:34;;;;;;;13.05;6.65;;;13.10;99.90;;;;;;5036182;28;20045;-27
2022/08/27 06:06:09;;;;;;;9.32;6.75;;;13.70;99.90;;;;;;5033974;28;20065;-28
2022/08/27 06:08:37;;;;;;;8.90;5.72;;;13.90;99.90;;;;;;5035523;28;20132;-28
2022/08/27 06:11:04;;;;;;;9.18;6.18;;;13.70;99.90;;;;;;5034530;28;20107;-28
2022/08/27 06:13:36;;;;;;;7.60;5.75;;;13.90;99.90;;;;;;5035323;28;20128;-28
2022/08/27 06:16:08;;;;;;;9.63;6.15;;;14.10;99.90;;;;;;5034292;28;20042;-27
2022/08/27 06:18:35;;;;;;;12.80;5.60;;;14.20;99.90;;;;;;5035331;28;20057;-28
2022/08/27 06:21:04;;;;;;;7.80;4.90;;;14.80;99.90;;;;;;5035186;28;20143;-28
2022/08/27 06:23:30;;;;;;;8.60;4.65;;;14.50;99.90;;;;;;5036902;28;20037;-28
2022/08/27 06:25:56;;;;;;;11.52;4.78;;;15.30;99.90;;;;;;5034267;28;20124;-28
2022/08/27 06:28:25;;;;;;;11.52;4.18;;;15.50;99.90;;;;;;5034449;28;20049;-27
2022/08/27 06:30:50;;;;;;;7.88;2.97;;;15.70;99.90;;;;;;5033753;28;20484;-28
2022/08/27 06:33:16;;;;;;;9.25;3.42;;;15.40;99.90;;;;;;5035003;28;20042;-28
2022/08/27 06:35:42;;;;;;;6.32;2.80;;;15.50;99.90;;;;;;5034999;28;20049;-28
2022/08/27 06:38:08;;;;;;;4.20;2.17;;;15.70;99.90;;;;;;5034831;28;20411;-28
2022/08/27 06:40:33;;;;;;;6.70;2.80;;;15.90;99.90;;;;;;5034878;28;20044;-28
2022/08/27 06:42:59;;;;;;;6.65;2.10;;;16.40;99.90;;;;;;5033813;28;20045;-28
2022/08/27 06:45:25;;;;;;;9.95;2.08;;;16.30;99.90;;;;;;5033839;28;20042;-28
2022/08/27 06:47:54;;;;;;;5.80;1.70;;;16.60;99.90;;;;;;5034726;28;20554;-28
2022/08/27 06:50:20;;;;;;;8.10;2.10;;;16.60;99.90;;;;;;5034696;28;20038;-28
2022/08/27 06:52:48;;;;;;;8.77;1.63;;;16.90;99.90;;;;;;5033433;28;20072;-28
2022/08/27 06:55:13;;;;;;;8.85;1.73;;;16.90;6.30;;;;;;5035440;28;20045;-28
2022/08/27 06:57:39;;;;;;;10.45;1.83;;;17.10;1.00;;;;;;5033398;28;20096;-28
2022/08/27 07:00:08;;;;;;;5.65;1.70;;;17.40;99.90;;;;;;5033467;28;20127;-28
2022/08/27 07:02:34;;;;;;;6.03;1.65;;;17.50;99.90;;;;;;5033225;28;20071;-27
2022/08/27 07:04:59;;;;;;;7.18;2.08;;;17.50;99.90;;;;;;5049822;28;20045;-28
2022/08/27 07:07:26;;;;;;;5.53;1.10;;;17.60;84.40;;;;;;5034904;28;20059;-27
2022/08/27 07:09:52;;;;;;;9.45;1.50;;;17.80;1.00;;;;;;5033424;28;20068;-29
2022/08/27 07:12:17;;;;;;;7.57;1.25;;;17.90;99.90;;;;;;5034304;28;20041;-27
2022/08/27 07:14:45;;;;;;;10.05;1.33;;;18.00;99.90;;;;;;5034122;28;20045;-28
2022/08/27 07:17:11;;;;;;;6.32;1.50;;;18.20;99.90;;;;;;5033938;28;20053;-27
2022/08/27 07:19:39;;;;;;;7.90;1.27;;;18.30;1.00;;;;;;5034173;28;20179;-28
2022/08/27 07:22:05;;;;;;;8.65;1.63;;;18.30;99.90;;;;;;5049203;28;20053;-28
2022/08/27 07:24:31;;;;;;;7.15;1.75;;;18.50;99.90;;;;;;5033944;28;20155;-28
2022/08/27 07:26:57;;;;;;;4.85;1.25;;;18.50;99.90;;;;;;5033195;28;20049;-27
2022/08/27 07:29:23;;;;;;;7.15;1.20;;;18.60;1.00;;;;;;5032532;28;20044;-27
2022/08/27 07:31:49;;;;;;;5.70;1.00;;;18.70;99.90;;;;;;5032745;28;20056;-28
2022/08/27 07:34:14;;;;;;;6.45;1.02;;;18.80;99.90;;;;;;5032461;28;20397;-27
2022/08/27 07:36:41;;;;;;;6.35;1.42;;;18.80;99.90;;;;;;5033529;28;20172;-28
2022/08/27 07:39:12;;;;;;;7.82;1.52;;;18.90;86.80;;;;;;5028762;28;20050;-28
2022/08/27 07:44:25;;;;;;;8.68;1.08;;;19.20;77.70;;;;;;5033859;28;20050;-28
2022/08/27 07:46:51;;;;;;;4.20;1.02;;;19.20;1.00;;;;;;5034704;28;20047;-29
2022/08/27 07:49:17;;;;;;;7.05;1.40;;;19.30;1.00;;;;;;5033725;28;20053;-28
2022/08/27 07:51:44;;;;;;;6.65;2.05;;;19.40;1.00;;;;;;5016328;28;20107;-28
2022/08/27 07:54:09;;;;;;;5.07;1.30;;;19.40;1.00;;;;;;5033643;28;20124;-28
2022/08/27 07:56:35;;;;;;;7.90;1.23;;;19.50;1.00;;;;;;5032640;28;20125;-28
2022/08/27 07:59:01;;;;;;;10.50;2.00;;;19.60;1.00;;;;;;5033629;28;20045;-28
2022/08/27 08:01:28;;;;;;;8.07;1.48;;;19.60;1.00;;;;;;5032641;28;20478;-28
2022/08/27 08:03:54;;;;;;;8.18;1.65;;;19.70;99.90;;;;;;5033903;28;20111;-27
2022/08/27 08:06:20;;;;;;;6.45;0.98;;;19.60;99.90;;;;;;5015202;28;20053;-28
2022/08/27 08:08:48;;;;;;;4.68;0.93;;;19.60;99.90;;;;;;5033594;28;20103;-28
2022/08/27 08:11:16;;;;;;;9.43;2.80;;;19.70;99.90;;;;;;5033482;28;20048;-27
2022/08/27 08:13:43;;;;;;;8.65;1.40;;;19.80;99.90;;;;;;5032464;28;20046;-28
2022/08/27 08:16:09;;;;;;;7.18;1.02;;;19.90;99.90;;;;;;5033390;28;20046;-28
2022/08/27 08:18:40;;;;;;;4.70;1.23;;;19.90;97.20;;;;;;5035523;28;20509;-28
2022/08/27 08:21:14;;;;;;;9.35;1.42;;;20.00;1.00;;;;;;5035393;28;20416;-28
2022/08/27 08:23:45;;;;;;;6.82;1.00;;;20.00;62.50;;;;;;5026998;28;20481;-27
2022/08/27 08:26:12;;;;;;;11.27;1.60;;;20.00;1.40;;;;;;5036759;28;20041;-28
2022/08/27 08:28:40;;;;;;;5.93;1.85;;;19.90;1.00;;;;;;5037186;28;20053;-29
2022/08/27 08:31:07;;;;;;;6.30;1.35;;;19.90;1.00;;;;;;5037016;28;20077;-29
2022/08/27 08:33:33;;;;;;;7.65;1.40;;;19.90;1.00;;;;;;5037294;28;20057;-29
2022/08/27 08:36:15;;;;;;;9.57;1.50;;;19.90;1.00;;;;;;5036887;28;20435;-29
2022/08/27 08:38:42;;;;;;;6.70;1.55;;;19.90;1.00;;;;;;5039234;28;20054;-29
2022/08/27 08:41:47;;;;;;;7.60;1.13;;;20.00;1.00;;;;;;5037124;28;20514;-29
2022/08/27 08:44:47;;;;;;;7.18;1.15;;;20.00;99.90;;;;;;5014921;28;20053;-29
2022/08/27 08:47:25;;;;;;;11.80;1.38;;;20.10;1.00;;;;;;5036260;28;20050;-29
2022/08/27 08:50:03;;;;;;;9.68;1.38;;;20.10;1.00;;;;;;5035967;28;20052;-29
2022/08/27 08:53:03;;;;;;;5.80;1.85;;;20.00;1.00;;;;;;5035228;28;20392;-29
2022/08/27 08:55:46;;;;;;;4.53;1.10;;;20.00;99.90;;;;;;5017179;28;20053;-29
2022/08/27 08:58:49;;;;;;;8.23;1.23;;;19.90;1.00;;;;;;5029062;28;20099;-29
2022/08/27 09:01:24;;;;;;;3.63;0.93;;;20.00;99.90;;;;;;5035062;28;20080;-29
2022/08/27 09:04:03;;;;;;;10.55;1.38;;;19.90;99.90;;;;;;5038261;28;20041;-29
2022/08/27 09:06:40;;;;;;;9.60;1.10;;;19.90;99.90;;;;;;5036703;28;20061;-30
2022/08/27 09:09:43;;;;;;;7.75;1.00;;;19.90;99.90;;;;;;5036191;28;20136;-29
2022/08/27 09:12:29;;;;;;;8.38;1.20;;;19.90;99.90;;;;;;5036634;28;20108;-29
2022/08/27 09:15:17;;;;;;;8.35;1.45;;;19.90;1.00;;;;;;5035424;28;20049;-29
2022/08/27 09:17:44;;;;;;;6.07;1.05;;;20.00;1.00;;;;;;5037157;28;20045;-29
2022/08/27 09:20:12;;;;;;;6.82;1.38;;;19.90;1.00;;;;;;5035280;28;20502;-29
2022/08/27 09:23:14;;;;;;;5.35;1.00;;;20.00;1.00;;;;;;5036310;28;20492;-29
2022/08/27 09:25:42;;;;;;;4.75;0.93;;;20.00;99.90;;;;;;5034453;28;20128;-29
2022/08/27 09:31:11;;;;;;;8.13;1.35;;;20.20;99.90;;;;;;5036281;28;20058;-29
2022/08/27 09:33:37;;;;;;;5.03;1.38;;;20.60;99.90;;;;;;5036410;28;20050;-29
2022/08/27 09:36:08;;;;;;;6.97;1.05;;;21.20;99.90;;;;;;5034014;28;20384;-29
2022/08/27 09:38:35;;;;;;;4.50;1.00;;;22.30;1.00;;;;;;5034865;28;20542;-29
2022/08/27 09:41:06;;;;;;;3.63;0.80;;;23.40;1.00;;;;;;5036014;28;20052;-30
2022/08/27 09:43:32;;;;;;;5.18;1.38;;;24.40;99.90;;;;;;5036349;28;20049;-29
2022/08/27 09:46:01;;;;;;;6.38;1.65;;;24.70;99.90;;;;;;5031169;28;20041;-29
2022/08/27 09:48:37;;;;;;;4.53;1.10;;;24.90;99.90;;;;;;5036397;28;20046;-29
2022/08/27 09:51:11;;;;;;;10.25;1.10;;;25.70;99.90;;;;;;5034795;28;20052;-29
2022/08/27 09:53:49;;;;;;;6.65;1.75;;;25.60;99.90;;;;;;5037903;28;20049;-29
2022/08/27 09:56:36;;;;;;;7.10;1.83;;;24.80;99.90;;;;;;5035899;28;20095;-29
2022/08/27 09:59:18;;;;;;;5.93;1.10;;;23.70;99.90;;;;;;5019053;28;20057;-29
2022/08/27 10:02:04;;;;;;;5.97;1.03;;;23.10;99.90;;;;;;5036578;28;20049;-29
2022/08/27 10:04:37;;;;;;;2.35;0.65;;;22.70;99.90;;;;;;5034643;28;20674;-29
2022/08/27 10:07:30;;;;;;;4.97;1.00;;;22.30;99.90;;;;;;5035786;28;20100;-29
2022/08/27 10:10:20;;;;;;;4.90;1.02;;;22.40;99.90;;;;;;5034617;28;20156;-30
2022/08/27 10:13:03;;;;;;;4.60;1.10;;;23.30;99.90;;;;;;5034206;28;20091;-29
2022/08/27 10:16:15;;;;;;;3.60;0.98;;;23.30;99.90;;;;;;5034401;28;20081;-29
2022/08/27 10:18:58;;;;;;;6.65;1.00;;;24.00;99.90;;;;;;4990070;28;20491;-29
2022/08/27 10:21:32;;;;;;;4.57;1.33;;;25.00;99.90;;;;;;5036115;28;20072;-29
2022/08/27 10:24:11;;;;;;;6.38;0.73;;;24.90;99.90;;;;;;5034876;28;20050;-29
2022/08/27 10:27:00;;;;;;;3.30;0.80;;;24.20;99.90;;;;;;5034130;28;20065;-30
2022/08/27 10:29:46;;;;;;;3.95;1.55;;;24.00;99.90;;;;;;5019891;28;20112;-29
2022/08/27 10:32:33;;;;;;;5.40;1.55;;;23.40;99.90;;;;;;5016095;28;20053;-29
2022/08/27 10:35:24;;;;;;;8.90;1.70;;;23.00;99.90;;;;;;5028031;28;20053;-29
2022/08/27 10:38:14;;;;;;;5.18;1.00;;;22.70;99.90;;;;;;5034983;28;20049;-30
2022/08/27 10:41:15;;;;;;;8.82;1.27;;;22.40;99.90;;;;;;5034548;28;20120;-29
2022/08/27 10:43:59;;;;;;;6.35;1.10;;;22.10;99.90;;;;;;5034207;28;20056;-29
2022/08/27 10:46:41;;;;;;;6.82;0.88;;;21.90;99.90;;;;;;5033169;28;20071;-29
2022/08/27 10:49:16;;;;;;;8.05;1.00;;;21.90;99.90;;;;;;5035068;28;20049;-29
2022/08/27 10:52:03;;;;;;;5.80;1.00;;;22.20;99.90;;;;;;5034717;28;20480;-29
2022/08/27 10:54:40;;;;;;;5.10;0.80;;;23.40;99.90;;;;;;5034327;28;20037;-29
2022/08/27 10:57:40;;;;;;;3.88;1.08;;;24.30;99.90;;;;;;5016459;28;20403;-30
2022/08/27 11:00:12;;;;;;;4.25;0.70;;;24.60;99.90;;;;;;5017105;28;20053;-29
2022/08/27 11:02:41;;;;;;;;;;;25.40;99.90;;;;;;5035595;28;20049;-29
2022/08/27 11:05:24;;;;;;;5.00;0.80;;;26.10;99.90;;;;;;5029797;28;20387;-29
2022/08/27 11:08:06;;;;;;;5.93;1.15;;;26.60;99.90;;;;;;5033344;28;20517;-29
2022/08/27 11:10:38;;;;;;;9.32;1.23;;;26.10;99.90;;;;;;5034358;28;20041;-30
2022/08/27 11:13:11;;;;;;;7.43;1.13;;;25.00;99.90;;;;;;5034571;28;20045;-29
2022/08/27 11:15:46;;;;;;;9.65;1.02;;;24.20;99.90;;;;;;5027934;28;20538;-29
2022/08/27 11:18:36;;;;;;;7.40;0.90;;;23.20;99.90;;;;;;5014510;28;20046;-30
2022/08/27 11:21:38;;;;;;;8.82;1.15;;;23.00;99.90;;;;;;5039483;28;20552;-29
2022/08/27 11:24:46;;;;;;;6.65;1.20;;;22.70;99.90;;;;;;5034152;28;20053;-29
2022/08/27 11:27:15;;;;;;;3.45;0.70;;;23.60;99.90;;;;;;5034420;28;20124;-29
2022/08/27 11:30:06;;;;;;;6.25;0.75;;;24.00;99.90;;;;;;5034853;28;20150;-30
2022/08/27 11:32:53;;;;;;;5.40;1.00;;;23.70;99.90;;;;;;5033317;28;20064;-30
2022/08/27 11:35:27;;;;;;;5.25;0.93;;;23.10;99.90;;;;;;5034003;28;20055;-29
2022/08/27 11:38:35;;;;;;;5.57;0.90;;;22.60;99.90;;;;;;5033962;28;20049;-29
2022/08/27 11:41:28;;;;;;;6.45;1.27;;;22.60;99.90;;;;;;5034183;28;20140;-30
2022/08/27 11:43:54;;;;;;;;;;;22.60;99.90;;;;;;5033528;28;20041;-29
2022/08/27 11:46:25;;;;;;;6.82;0.95;;;22.40;99.90;;;;;;5033877;28;20007;-29
2022/08/27 11:49:00;;;;;;;5.40;1.00;;;22.10;99.90;;;;;;5033830;28;20075;-29
2022/08/27 11:51:37;;;;;;;3.60;0.70;;;22.40;99.90;;;;;;5033013;28;20407;-30
2022/08/27 11:54:11;;;;;;;5.57;0.60;;;23.00;99.90;;;;;;5031542;28;20064;-30
2022/08/27 11:56:41;;;;;;;5.10;1.13;;;23.20;99.90;;;;;;5033743;28;20132;-29
2022/08/27 11:59:27;;;;;;;5.13;0.75;;;22.80;99.90;;;;;;5033685;28;20206;-29
2022/08/27 12:02:10;;;;;;;5.35;0.82;;;22.60;99.90;;;;;;5033728;28;20067;-29
2022/08/27 12:04:39;;;;;;;1.80;0.85;;;22.60;99.90;;;;;;5032617;28;20121;-29
2022/08/27 12:07:04;;;;;;;7.43;0.90;;;22.80;99.90;;;;;;5033596;28;20085;-29
2022/08/27 12:09:43;;;;;;;5.82;0.98;;;23.20;99.90;;;;;;5030312;28;20085;-29
2022/08/27 12:12:29;;;;;;;5.07;0.80;;;23.40;99.90;;;;;;5026118;28;20045;-29
2022/08/27 12:15:08;;;;;;;4.97;1.35;;;23.20;99.90;;;;;;5037907;28;20046;-29
2022/08/27 12:18:07;;;;;;;3.50;0.90;;;23.00;99.90;;;;;;5038510;28;20068;-29
2022/08/27 12:20:54;;;;;;;6.03;0.80;;;22.90;99.90;;;;;;5029463;28;20053;-30
2022/08/27 12:23:41;;;;;;;5.28;0.55;;;23.30;99.90;;;;;;5014978;28;20041;-28
2022/08/27 12:26:19;;;;;;;6.07;1.25;;;24.30;99.90;;;;;;5024639;28;20088;-30
2022/08/27 12:28:50;;;;;;;3.92;0.70;;;25.00;99.90;;;;;;5033557;28;20060;-30
2022/08/27 12:31:22;;;;;;;6.38;0.90;;;25.80;99.90;;;;;;5016373;28;20393;-29
2022/08/27 12:33:52;;;;;;;7.13;0.90;;;26.80;99.90;;;;;;5037119;28;20495;-30
2022/08/27 12:36:23;;;;;;;5.90;0.80;;;26.30;99.90;;;;;;5033335;28;20404;-29
2022/08/27 12:38:54;;;;;;;5.60;0.80;;;25.90;99.90;;;;;;5033249;28;20064;-30
2022/08/27 12:41:47;;;;;;;8.27;1.00;;;25.20;99.90;;;;;;5034146;28;20381;-30
2022/08/27 12:44:30;;;;;;;4.43;1.30;;;25.00;99.90;;;;;;5032231;28;20046;-29
2022/08/27 12:47:06;;;;;;;4.68;0.90;;;24.70;99.90;;;;;;5033290;28;20050;-29
2022/08/27 12:49:57;;;;;;;6.65;1.95;;;24.30;99.90;;;;;;5033246;28;20125;-29
2022/08/27 12:52:47;;;;;;;6.60;1.25;;;23.70;99.90;;;;;;5033227;28;20041;-30
2022/08/27 12:55:30;;;;;;;5.05;1.00;;;23.40;99.90;;;;;;5031918;28;20415;-29
2022/08/27 12:58:15;;;;;;;7.85;1.45;;;23.60;99.90;;;;;;5033477;28;20486;-29
2022/08/27 13:01:00;;;;;;;6.72;1.35;;;23.60;99.90;;;;;;5033136;28;20160;-30
2022/08/27 13:03:38;;;;;;;8.05;1.20;;;23.30;99.90;;;;;;5033727;28;20045;-29
2022/08/27 13:06:27;;;;;;;4.15;1.10;;;22.70;99.90;;;;;;5032870;28;20052;-31
2022/08/27 13:08:58;;;;;;;7.75;1.23;;;23.10;99.90;;;;;;5017546;28;20057;-29
2022/08/27 13:11:55;;;;;;;8.48;1.48;;;23.70;99.90;;;;;;5032161;28;20487;-29
2022/08/27 13:14:23;;;;;;;3.50;1.23;;;24.40;99.90;;;;;;5034898;28;20104;-29
2022/08/27 13:16:57;;;;;;;6.22;1.58;;;25.10;99.90;;;;;;5036494;28;20056;-29